AWW27VL EICK-EGFF
Flight info
| Callsign | AWW27VL |
|---|---|
| Flight time | 0h 44m |
| Altitude | 25000 |
| Route | VAPAL1S VAPAL DCT BANBA N30 ADHAV P70 AGCAT Q63 BAJJA |
| Aircraft | A320/M-SDE3FGHIRWY/LB1 |
Departure
| Time | 2026-04-28 14:57 |
|---|---|
| Airport | Cork International Airport (EICK) |
Arrival
| Time | 2026-04-28 15:41 |
|---|---|
| Airport | Cardiff International Airport (EGFF) |
| Time | Latitude | Longitude | Altitude | Speed | Heading |
|---|---|---|---|---|---|
| 2026-04-28 14:34 | 51.84894 | -8.49078 | 503 ft | 0 kts | 70° |
| 2026-04-28 14:50 | 51.84892 | -8.49088 | 503 ft | 2 kts | 70° |
| 2026-04-28 14:50 | 51.84885 | -8.49118 | 503 ft | 3 kts | 70° |
| 2026-04-28 14:50 | 51.84878 | -8.49149 | 503 ft | 3 kts | 70° |
| 2026-04-28 14:50 | 51.84871 | -8.49178 | 503 ft | 2 kts | 70° |
| 2026-04-28 14:51 | 51.84864 | -8.49204 | 503 ft | 3 kts | 49° |
| 2026-04-28 14:51 | 51.84851 | -8.49221 | 503 ft | 3 kts | 6° |
| 2026-04-28 14:51 | 51.84833 | -8.49220 | 503 ft | 2 kts | 346° |
| 2026-04-28 14:51 | 51.84827 | -8.49217 | 502 ft | 0 kts | 346° |
| 2026-04-28 14:54 | 51.84831 | -8.49219 | 502 ft | 4 kts | 346° |
| 2026-04-28 14:54 | 51.84937 | -8.49274 | 503 ft | 27 kts | 343° |
| 2026-04-28 14:54 | 51.85081 | -8.49349 | 503 ft | 11 kts | 340° |
| 2026-04-28 14:54 | 51.85143 | -8.49407 | 502 ft | 10 kts | 301° |
| 2026-04-28 14:55 | 51.85127 | -8.49486 | 490 ft | 1 kts | 216° |
| 2026-04-28 14:55 | 51.85107 | -8.49506 | 491 ft | 6 kts | 207° |
| 2026-04-28 14:55 | 51.85053 | -8.49549 | 486 ft | 11 kts | 205° |
| 2026-04-28 14:55 | 51.84955 | -8.49596 | 489 ft | 13 kts | 170° |
| 2026-04-28 14:56 | 51.84888 | -8.49556 | 488 ft | 15 kts | 160° |
| 2026-04-28 14:56 | 51.84559 | -8.49360 | 487 ft | 88 kts | 160° |
| 2026-04-28 14:56 | 51.83783 | -8.48898 | 526 ft | 139 kts | 158° |
| 2026-04-28 14:56 | 51.82896 | -8.48332 | 1038 ft | 143 kts | 154° |
| 2026-04-28 14:57 | 51.81924 | -8.47812 | 1581 ft | 147 kts | 159° |
| 2026-04-28 14:57 | 51.81263 | -8.47533 | 1886 ft | 154 kts | 159° |
| 2026-04-28 14:57 | 51.79760 | -8.46752 | 2179 ft | 185 kts | 156° |
| 2026-04-28 14:57 | 51.78458 | -8.46088 | 2449 ft | 209 kts | 159° |
| 2026-04-28 14:58 | 51.77034 | -8.45179 | 2771 ft | 228 kts | 139° |
| 2026-04-28 14:58 | 51.76121 | -8.43101 | 3210 ft | 241 kts | 100° |
| 2026-04-28 14:58 | 51.76175 | -8.40373 | 3901 ft | 246 kts | 73° |
| 2026-04-28 14:58 | 51.76722 | -8.37787 | 4836 ft | 247 kts | 66° |
| 2026-04-28 14:59 | 51.77390 | -8.35227 | 5826 ft | 249 kts | 65° |
| 2026-04-28 14:59 | 51.78067 | -8.32597 | 6825 ft | 251 kts | 67° |
| 2026-04-28 14:59 | 51.78700 | -8.29956 | 7708 ft | 254 kts | 69° |
| 2026-04-28 14:59 | 51.79292 | -8.27280 | 8591 ft | 258 kts | 70° |
| 2026-04-28 15:00 | 51.79864 | -8.24521 | 9502 ft | 260 kts | 71° |
| 2026-04-28 15:00 | 51.80421 | -8.21717 | 10394 ft | 264 kts | 71° |
| 2026-04-28 15:00 | 51.80987 | -8.18793 | 10801 ft | 284 kts | 71° |
| 2026-04-28 15:00 | 51.81590 | -8.15630 | 11204 ft | 301 kts | 71° |
| 2026-04-28 15:01 | 51.82209 | -8.12356 | 11904 ft | 307 kts | 71° |
| 2026-04-28 15:01 | 51.82836 | -8.09031 | 12682 ft | 311 kts | 71° |
| 2026-04-28 15:01 | 51.83470 | -8.05669 | 13466 ft | 315 kts | 71° |
| 2026-04-28 15:01 | 51.84113 | -8.02265 | 14235 ft | 318 kts | 71° |
| 2026-04-28 15:02 | 51.84760 | -7.98823 | 14916 ft | 321 kts | 71° |
| 2026-04-28 15:02 | 51.85409 | -7.95349 | 15599 ft | 324 kts | 71° |
| 2026-04-28 15:02 | 51.86060 | -7.91842 | 16283 ft | 327 kts | 71° |
| 2026-04-28 15:02 | 51.86716 | -7.88307 | 16968 ft | 330 kts | 71° |
| 2026-04-28 15:03 | 51.87381 | -7.84740 | 17631 ft | 332 kts | 70° |
| 2026-04-28 15:03 | 51.87917 | -7.81080 | 18328 ft | 338 kts | 79° |
| 2026-04-28 15:03 | 51.88131 | -7.77270 | 18993 ft | 340 kts | 81° |
| 2026-04-28 15:03 | 51.88330 | -7.73442 | 19580 ft | 343 kts | 81° |
| 2026-04-28 15:04 | 51.88532 | -7.69579 | 20148 ft | 346 kts | 81° |
| 2026-04-28 15:04 | 51.88737 | -7.65685 | 20717 ft | 349 kts | 81° |
| 2026-04-28 15:04 | 51.88944 | -7.61760 | 21287 ft | 352 kts | 81° |
| 2026-04-28 15:04 | 51.89152 | -7.57800 | 21843 ft | 355 kts | 81° |
| 2026-04-28 15:05 | 51.89357 | -7.53802 | 22396 ft | 358 kts | 81° |
| 2026-04-28 15:05 | 51.89563 | -7.49767 | 22952 ft | 361 kts | 81° |
| 2026-04-28 15:05 | 51.89769 | -7.45699 | 23504 ft | 364 kts | 81° |
| 2026-04-28 15:05 | 51.89976 | -7.41595 | 24033 ft | 367 kts | 81° |
| 2026-04-28 15:06 | 51.90182 | -7.37459 | 24476 ft | 370 kts | 81° |
| 2026-04-28 15:06 | 51.90389 | -7.33296 | 24939 ft | 371 kts | 81° |
| 2026-04-28 15:06 | 51.90585 | -7.29218 | 25324 ft | 354 kts | 81° |
| 2026-04-28 15:06 | 51.90761 | -7.25344 | 25385 ft | 336 kts | 81° |
| 2026-04-28 15:07 | 51.90924 | -7.21699 | 25393 ft | 310 kts | 80° |
| 2026-04-28 15:07 | 51.91073 | -7.18351 | 25396 ft | 290 kts | 79° |
| 2026-04-28 15:07 | 51.91226 | -7.15127 | 25398 ft | 285 kts | 79° |
| 2026-04-28 15:07 | 51.91384 | -7.11938 | 25398 ft | 284 kts | 79° |
| 2026-04-28 15:08 | 51.91545 | -7.08748 | 25398 ft | 284 kts | 79° |
| 2026-04-28 15:08 | 51.91705 | -7.05541 | 25399 ft | 291 kts | 79° |
| 2026-04-28 15:08 | 51.91876 | -7.02163 | 25400 ft | 310 kts | 79° |
| 2026-04-28 15:08 | 51.92055 | -6.98586 | 25398 ft | 328 kts | 80° |
| 2026-04-28 15:09 | 51.92232 | -6.94867 | 25395 ft | 341 kts | 81° |
| 2026-04-28 15:09 | 51.92404 | -6.91008 | 25396 ft | 345 kts | 81° |
| 2026-04-28 15:09 | 51.92572 | -6.87121 | 25396 ft | 347 kts | 81° |
| 2026-04-28 15:09 | 51.92687 | -6.84489 | 25396 ft | 347 kts | 81° |
| 2026-04-28 15:10 | 51.92915 | -6.79347 | 25401 ft | 344 kts | 81° |
| 2026-04-28 15:10 | 51.93085 | -6.75485 | 25399 ft | 344 kts | 81° |
| 2026-04-28 15:10 | 51.93255 | -6.71625 | 25399 ft | 343 kts | 81° |
| 2026-04-28 15:10 | 51.93427 | -6.67770 | 25399 ft | 343 kts | 81° |
| 2026-04-28 15:11 | 51.93600 | -6.63910 | 25394 ft | 343 kts | 81° |
| 2026-04-28 15:11 | 51.93769 | -6.60058 | 25394 ft | 343 kts | 81° |
| 2026-04-28 15:11 | 51.93935 | -6.56198 | 25394 ft | 343 kts | 81° |
| 2026-04-28 15:11 | 51.94100 | -6.52339 | 25394 ft | 343 kts | 81° |
| 2026-04-28 15:12 | 51.94262 | -6.48489 | 25396 ft | 343 kts | 81° |
| 2026-04-28 15:12 | 51.94423 | -6.44630 | 25396 ft | 343 kts | 81° |
| 2026-04-28 15:12 | 51.94584 | -6.40778 | 25395 ft | 343 kts | 81° |
| 2026-04-28 15:12 | 51.94745 | -6.36916 | 25395 ft | 343 kts | 81° |
| 2026-04-28 15:13 | 51.94902 | -6.33060 | 25433 ft | 343 kts | 81° |
| 2026-04-28 15:13 | 51.95059 | -6.29216 | 25430 ft | 342 kts | 81° |
| 2026-04-28 15:13 | 51.95217 | -6.25378 | 25422 ft | 341 kts | 81° |
| 2026-04-28 15:13 | 51.95204 | -6.21521 | 25419 ft | 344 kts | 87° |
| 2026-04-28 15:14 | 51.95074 | -6.17652 | 25418 ft | 344 kts | 87° |
| 2026-04-28 15:14 | 51.94941 | -6.13790 | 25416 ft | 343 kts | 87° |
| 2026-04-28 15:14 | 51.94806 | -6.09927 | 25413 ft | 343 kts | 87° |
| 2026-04-28 15:14 | 51.94670 | -6.06073 | 25406 ft | 343 kts | 87° |
| 2026-04-28 15:15 | 51.94532 | -6.02218 | 25403 ft | 342 kts | 87° |
| 2026-04-28 15:15 | 51.94441 | -5.99671 | 25400 ft | 342 kts | 87° |
| 2026-04-28 15:15 | 51.94256 | -5.94514 | 25394 ft | 342 kts | 87° |
| 2026-04-28 15:15 | 51.94115 | -5.90666 | 25388 ft | 342 kts | 87° |
| 2026-04-28 15:16 | 51.93974 | -5.86815 | 25391 ft | 342 kts | 87° |
| 2026-04-28 15:16 | 51.93835 | -5.83018 | 25422 ft | 342 kts | 86° |
| 2026-04-28 15:16 | 51.93693 | -5.79179 | 25418 ft | 341 kts | 86° |
| 2026-04-28 15:16 | 51.93550 | -5.75349 | 25410 ft | 340 kts | 86° |
| 2026-04-28 15:17 | 51.93405 | -5.71534 | 25409 ft | 339 kts | 86° |
| 2026-04-28 15:17 | 51.93262 | -5.67719 | 25404 ft | 339 kts | 86° |
| 2026-04-28 15:17 | 51.93118 | -5.63912 | 25397 ft | 338 kts | 86° |
| 2026-04-28 15:17 | 51.92974 | -5.60111 | 25395 ft | 338 kts | 87° |
| 2026-04-28 15:18 | 51.92825 | -5.56311 | 25394 ft | 338 kts | 87° |
| 2026-04-28 15:18 | 51.92674 | -5.52510 | 25392 ft | 338 kts | 87° |
| 2026-04-28 15:18 | 51.92520 | -5.48713 | 25389 ft | 338 kts | 87° |
| 2026-04-28 15:18 | 51.92364 | -5.44915 | 25384 ft | 338 kts | 87° |
| 2026-04-28 15:19 | 51.92210 | -5.41116 | 25382 ft | 338 kts | 87° |
| 2026-04-28 15:19 | 51.92058 | -5.37328 | 25402 ft | 337 kts | 86° |
| 2026-04-28 15:19 | 51.91902 | -5.33536 | 25400 ft | 337 kts | 86° |
| 2026-04-28 15:19 | 51.91742 | -5.29750 | 25397 ft | 337 kts | 86° |
| 2026-04-28 15:20 | 51.91581 | -5.25966 | 25393 ft | 336 kts | 86° |
| 2026-04-28 15:20 | 51.91364 | -5.22189 | 25387 ft | 340 kts | 92° |
| 2026-04-28 15:20 | 51.90930 | -5.18411 | 25385 ft | 341 kts | 92° |
| 2026-04-28 15:20 | 51.90492 | -5.14636 | 25382 ft | 341 kts | 92° |
| 2026-04-28 15:21 | 51.90053 | -5.10867 | 25377 ft | 341 kts | 93° |
| 2026-04-28 15:21 | 51.89613 | -5.07094 | 25375 ft | 341 kts | 93° |
| 2026-04-28 15:21 | 51.89172 | -5.03321 | 25374 ft | 341 kts | 93° |
| 2026-04-28 15:21 | 51.88729 | -4.99544 | 25362 ft | 341 kts | 93° |
| 2026-04-28 15:22 | 51.88286 | -4.95775 | 25362 ft | 341 kts | 93° |
| 2026-04-28 15:22 | 51.87842 | -4.92010 | 25361 ft | 341 kts | 93° |
| 2026-04-28 15:22 | 51.87395 | -4.88242 | 25382 ft | 341 kts | 93° |
| 2026-04-28 15:22 | 51.86943 | -4.84479 | 25390 ft | 341 kts | 92° |
| 2026-04-28 15:23 | 51.86489 | -4.80721 | 25388 ft | 340 kts | 92° |
| 2026-04-28 15:23 | 51.86039 | -4.76968 | 25385 ft | 339 kts | 92° |
| 2026-04-28 15:23 | 51.85592 | -4.73225 | 25380 ft | 339 kts | 92° |
| 2026-04-28 15:23 | 51.85145 | -4.69491 | 25377 ft | 338 kts | 92° |
| 2026-04-28 15:24 | 51.84695 | -4.65758 | 25376 ft | 338 kts | 92° |
| 2026-04-28 15:24 | 51.84245 | -4.62030 | 25374 ft | 338 kts | 92° |
| 2026-04-28 15:24 | 51.83792 | -4.58302 | 25371 ft | 337 kts | 92° |
| 2026-04-28 15:24 | 51.83346 | -4.54631 | 25368 ft | 337 kts | 92° |
| 2026-04-28 15:25 | 51.82890 | -4.50862 | 25363 ft | 337 kts | 92° |
| 2026-04-28 15:25 | 51.82591 | -4.48395 | 25362 ft | 337 kts | 92° |
| 2026-04-28 15:25 | 51.82137 | -4.44679 | 25356 ft | 337 kts | 92° |
| 2026-04-28 15:25 | 51.81521 | -4.39634 | 25350 ft | 351 kts | 93° |
| 2026-04-28 15:26 | 51.81208 | -4.37070 | 25351 ft | 350 kts | 93° |
| 2026-04-28 15:26 | 51.80732 | -4.33259 | 24981 ft | 343 kts | 93° |
| 2026-04-28 15:26 | 51.80260 | -4.29499 | 24516 ft | 340 kts | 93° |
| 2026-04-28 15:26 | 51.79856 | -4.25759 | 24034 ft | 336 kts | 90° |
| 2026-04-28 15:27 | 51.79481 | -4.20830 | 23305 ft | 332 kts | 88° |
| 2026-04-28 15:27 | 51.79251 | -4.17138 | 22783 ft | 329 kts | 88° |
| 2026-04-28 15:27 | 51.79101 | -4.14661 | 22445 ft | 327 kts | 88° |
| 2026-04-28 15:27 | 51.78873 | -4.11014 | 21948 ft | 325 kts | 89° |
| 2026-04-28 15:28 | 51.78633 | -4.07391 | 21469 ft | 323 kts | 89° |
| 2026-04-28 15:28 | 51.78386 | -4.03798 | 20996 ft | 321 kts | 89° |
| 2026-04-28 15:28 | 51.78135 | -4.00228 | 20520 ft | 319 kts | 90° |
| 2026-04-28 15:28 | 51.77875 | -3.96679 | 20057 ft | 317 kts | 90° |
| 2026-04-28 15:29 | 51.77614 | -3.93154 | 19597 ft | 315 kts | 90° |
| 2026-04-28 15:29 | 51.77358 | -3.89699 | 19168 ft | 313 kts | 90° |
| 2026-04-28 15:29 | 51.77101 | -3.86219 | 18745 ft | 311 kts | 91° |
| 2026-04-28 15:29 | 51.76848 | -3.82761 | 18269 ft | 309 kts | 91° |
| 2026-04-28 15:30 | 51.76595 | -3.79347 | 17556 ft | 304 kts | 91° |
| 2026-04-28 15:30 | 51.76344 | -3.75980 | 16725 ft | 301 kts | 91° |
| 2026-04-28 15:30 | 51.76096 | -3.72639 | 15916 ft | 298 kts | 92° |
| 2026-04-28 15:30 | 51.75850 | -3.69343 | 15274 ft | 291 kts | 92° |
| 2026-04-28 15:31 | 51.75608 | -3.66145 | 14749 ft | 283 kts | 92° |
| 2026-04-28 15:31 | 51.75373 | -3.63039 | 14240 ft | 275 kts | 92° |
| 2026-04-28 15:31 | 51.75143 | -3.60004 | 13711 ft | 270 kts | 92° |
| 2026-04-28 15:31 | 51.74918 | -3.57004 | 13204 ft | 268 kts | 92° |
| 2026-04-28 15:32 | 51.74692 | -3.54024 | 12706 ft | 267 kts | 92° |
| 2026-04-28 15:32 | 51.74466 | -3.51052 | 12235 ft | 266 kts | 93° |
| 2026-04-28 15:32 | 51.74240 | -3.48091 | 11764 ft | 265 kts | 93° |
| 2026-04-28 15:32 | 51.74012 | -3.45154 | 11291 ft | 262 kts | 94° |
| 2026-04-28 15:33 | 51.73784 | -3.42250 | 10833 ft | 260 kts | 94° |
| 2026-04-28 15:33 | 51.73559 | -3.39368 | 10370 ft | 258 kts | 94° |
| 2026-04-28 15:33 | 51.73327 | -3.36501 | 9865 ft | 257 kts | 98° |
| 2026-04-28 15:33 | 51.72673 | -3.33837 | 9399 ft | 259 kts | 121° |
| 2026-04-28 15:34 | 51.71340 | -3.31861 | 8927 ft | 267 kts | 146° |
| 2026-04-28 15:34 | 51.69535 | -3.31029 | 8420 ft | 278 kts | 173° |
| 2026-04-28 15:34 | 51.67625 | -3.31663 | 7882 ft | 289 kts | 202° |
| 2026-04-28 15:34 | 51.65910 | -3.33389 | 7328 ft | 291 kts | 208° |
| 2026-04-28 15:35 | 51.64232 | -3.35202 | 6731 ft | 289 kts | 208° |
| 2026-04-28 15:35 | 51.60898 | -3.38799 | 5436 ft | 287 kts | 210° |
| 2026-04-28 15:35 | 51.59272 | -3.40541 | 4814 ft | 281 kts | 210° |
| 2026-04-28 15:36 | 51.57650 | -3.42271 | 4237 ft | 279 kts | 210° |
| 2026-04-28 15:36 | 51.56013 | -3.44015 | 3688 ft | 278 kts | 210° |
| 2026-04-28 15:36 | 51.54473 | -3.45661 | 3467 ft | 254 kts | 211° |
| 2026-04-28 15:36 | 51.53057 | -3.47176 | 3409 ft | 240 kts | 210° |
| 2026-04-28 15:37 | 51.51671 | -3.48647 | 3338 ft | 238 kts | 210° |
| 2026-04-28 15:37 | 51.50288 | -3.50108 | 3225 ft | 237 kts | 210° |
| 2026-04-28 15:37 | 51.48915 | -3.51558 | 3111 ft | 236 kts | 210° |
| 2026-04-28 15:37 | 51.47463 | -3.52661 | 2998 ft | 226 kts | 181° |
| 2026-04-28 15:38 | 51.46011 | -3.52398 | 2926 ft | 200 kts | 149° |
| 2026-04-28 15:38 | 51.44950 | -3.51085 | 2506 ft | 193 kts | 117° |
| 2026-04-28 15:38 | 51.44335 | -3.49235 | 2172 ft | 182 kts | 110° |
| 2026-04-28 15:38 | 51.43793 | -3.47500 | 1924 ft | 166 kts | 111° |
| 2026-04-28 15:39 | 51.43302 | -3.45932 | 1704 ft | 150 kts | 109° |
| 2026-04-28 15:39 | 51.42858 | -3.44518 | 1513 ft | 136 kts | 108° |
| 2026-04-28 15:39 | 51.42447 | -3.43205 | 1330 ft | 131 kts | 109° |
| 2026-04-28 15:39 | 51.42043 | -3.41913 | 1140 ft | 129 kts | 110° |
| 2026-04-28 15:40 | 51.41642 | -3.40635 | 964 ft | 127 kts | 108° |
| 2026-04-28 15:40 | 51.41243 | -3.39376 | 762 ft | 128 kts | 111° |
| 2026-04-28 15:40 | 51.40851 | -3.38105 | 583 ft | 126 kts | 109° |
| 2026-04-28 15:40 | 51.40442 | -3.36834 | 454 ft | 129 kts | 108° |
| 2026-04-28 15:41 | 51.40046 | -3.35550 | 252 ft | 129 kts | 111° |
| 2026-04-28 15:41 | 51.39686 | -3.34406 | 222 ft | 93 kts | 117° |
| 2026-04-28 15:41 | 51.39471 | -3.33724 | 224 ft | 44 kts | 116° |
| 2026-04-28 15:41 | 51.39368 | -3.33401 | 225 ft | 29 kts | 116° |
| 2026-04-28 15:42 | 51.39289 | -3.33140 | 222 ft | 10 kts | 100° |
| 2026-04-28 15:42 | 51.39342 | -3.33073 | 222 ft | 11 kts | 28° |
| 2026-04-28 15:42 | 51.39419 | -3.33044 | 220 ft | 13 kts | 334° |
| 2026-04-28 15:42 | 51.39474 | -3.33154 | 221 ft | 11 kts | 298° |
| 2026-04-28 15:43 | 51.39507 | -3.33258 | 221 ft | 10 kts | 297° |
| 2026-04-28 15:43 | 51.39541 | -3.33365 | 220 ft | 11 kts | 296° |
| 2026-04-28 15:43 | 51.39575 | -3.33474 | 221 ft | 10 kts | 296° |
| 2026-04-28 15:43 | 51.39605 | -3.33573 | 220 ft | 10 kts | 296° |
| 2026-04-28 15:44 | 51.39637 | -3.33672 | 225 ft | 10 kts | 298° |
| 2026-04-28 15:44 | 51.39670 | -3.33770 | 221 ft | 9 kts | 298° |
| 2026-04-28 15:44 | 51.39696 | -3.33850 | 221 ft | 8 kts | 298° |
| 2026-04-28 15:44 | 51.39721 | -3.33923 | 221 ft | 7 kts | 297° |
| 2026-04-28 15:45 | 51.39770 | -3.34074 | 223 ft | 25 kts | 297° |
| 2026-04-28 15:45 | 51.39832 | -3.34272 | 223 ft | 0 kts | 306° |
| 2026-04-28 15:45 | 51.39833 | -3.34273 | 222 ft | 1 kts | 306° |
| 2026-04-28 15:45 | 51.39834 | -3.34276 | 222 ft | 0 kts | 306° |
| 2026-04-28 15:46 | 51.39858 | -3.34292 | 224 ft | 15 kts | 354° |
| 2026-04-28 15:46 | 51.39924 | -3.34217 | 222 ft | 9 kts | 89° |
| 2026-04-28 15:46 | 51.39916 | -3.34174 | 223 ft | 2 kts | 116° |
| 2026-04-28 15:46 | 51.39913 | -3.34165 | 222 ft | 0 kts | 116° |
| 2026-04-28 15:47 | 51.39913 | -3.34164 | 222 ft | 0 kts | 116° |